Irvington, AL

4:17 PM CDT on August 28, 2016 (GMT -0500)
Driftwood | | Change Station

Elev 89 ft 30.45 °N, 88.22 °W | Updated 2 seconds ago

Overcast
Overcast
82.4 °F
Feels Like 85 °F
N
0.2
Wind Variable Wind from NE
Gusts 2.5 mph

Today
High -- | Low -- °F
--% Chance of Precip.
Yesterday
High -- | Low -- °F
Precip. -- in
Pressure 30.00 in
Visibility 4.0 miles
Clouds Scattered Clouds 2800 ft
Mostly Cloudy 6000 ft
Overcast 7500 ft
Heat Index 85 °F
Dew Point 68 °F
Humidity 61%
Rainfall 0.30 in
Snow Depth Not available.
6:27 AM 7:19 PM
Waning Crescent, 13% visible
METAR KBFM 282053Z 21005KT 4SM TSRA BR SCT028 BKN060 OVC075 24/23 A3000 RMK AO2 WSHFT 2009 LTG DSNT ALQDS RAB05 TSB1954 SLP159 P0061 60061 T02440233 55005
Pressure 30.00 in
Visibility 4.0 miles
Clouds Scattered Clouds 2800 ft
Mostly Cloudy 6000 ft
Overcast 7500 ft
Heat Index 85 °F
Dew Point 68 °F
Humidity 61%
Rainfall 0.30 in
Snow Depth Not available.
6:27 AM 7:19 PM
Waning Crescent, 13% visible
METAR KBFM 282053Z 21005KT 4SM TSRA BR SCT028 BKN060 OVC075 24/23 A3000 RMK AO2 WSHFT 2009 LTG DSNT ALQDS RAB05 TSB1954 SLP159 P0061 60061 T02440233 55005

10-Day Weather Forecast

Almanac

Astronomy

Aug. 28, 2016 Rise Set
Actual Time
Civil Twilight
Nautical Twilight
Astronomical Twilight
Moon
Length of Visible Light
Length of Day
Tomorrow will be .
, % of the Moon is Illuminated

Today's Extremes

State Highs State Lows

Community

WunderPhotos

Upload Photos

1,935,692 photos uploaded!

WunderBlog® & News

Nearby

Air Quality

  Air Quality AQ Index Pollutant
Not available.

Snow Depth

Station Depth Elevation

Earthquake Activity

City Distance Mag. Time & Date
Minimum magnitude displayed is 2.5.

Coastal Water Temperatures

Place Temperature

Stations

Nearby Weather Stations

Station Location Temp. Windchill Dew Point Humidity Wind Precip. Elev Updated Type
                   

Watches & Warnings

There are currently no watches in effect.